Weather observations for the past three days for
Deadhorse, Deadhorse Airport
Imperial (Metric)
Date Time (akdt) Wind (mph) Vis. (mi.) Weather Sky Cond. Temperature (ºF) Relative Humidity Wind Chill (°F) Heat Index (°F) Pressure Precipitation (in)
Air Dwpt 6 hour altimeter (in) sea level (mb) 1 hr 3 hr 6 hr
Max. Min.
03 20:53 NW 10 8.00 Overcast FEW006 OVC050 30.9 28.9 92% 23 30.09 1019.0
03 19:53 W 14 6.00 Fog/Mist BKN007 OVC055 30.9 28.9 92% 21 30.08 1018.6
03 18:53 W 14 10.00 Overcast BKN007 OVC055 30.9 28.9 92% 21 30.06 1018.0
03 17:53 W 15 10.00 Overcast SCT006 OVC055 32 28.9 88% 22 30.05 1017.6
03 16:53 W 15 10.00 Overcast SCT007 BKN050 OVC080 30.9 28.9 92% 21 30.03 1017.1
03 15:53 W 16 10.00 Overcast FEW007 SCT048 OVC075 30.9 28.9 35.1 30.9 92% 21 30 1016.1
03 14:53 W 15 10.00 Overcast SCT007 OVC055 32 30 92% 22 29.98 1015.2
03 13:53 W 17 10.00 Overcast FEW047 OVC055 33.1 30 89% 23 29.96 1014.6
03 12:53 W 22 10.00 Mostly Cloudy and Breezy FEW005 SCT070 BKN085 32 30 92% 20 29.93 1013.6
03 11:53 W 17 10.00 Mostly Cloudy FEW050 FEW080 BKN100 35.1 30.9 85% 26 29.9 1012.8
03 10:53 W 10 10.00 Mostly Cloudy SCT080 BKN100 33.1 30 89% 26 29.88 1012.0
03 09:53 SW 9 10.00 Overcast OVC080 32 30 32 24.1 92% 25 29.86 1011.3
03 08:53 SW 9 10.00 Overcast OVC070 30.9 28.9 92% 24 29.85 1010.8
03 07:53 W 5 10.00 Overcast OVC070 28.9 27 92% 25 29.84 1010.4
03 06:53 SW 3 10.00 Overcast OVC065 28 26.1 92% 29.82 1010.0
03 05:53 SE 5 8.00 Overcast OVC065 25 24.1 96% 20 29.82 1009.8
03 04:53 E 5 6.00 Light Freezing Rain Fog/Mist BKN022 OVC060 25 25 100% 20 29.8 1009.3
03 02:53 Calm 7.00 Mostly Cloudy SCT011 SCT019 BKN035 26.1 25 96% 29.79 1008.8
03 01:53 SW 3 7.00 Overcast OVC011 26.1 25 96% 29.78 1008.5
03 00:53 W 5 8.00 Overcast OVC016 26.1 24.1 92% 21 29.76 1008.0
02 23:53 SW 6 6.00 Fog/Mist BKN027 BKN037 OVC085 26.1 24.1 92% 20 29.75 1007.5
02 22:53 W 6 6.00 Fog/Mist OVC042 27 25 92% 21 29.73 1006.9
02 21:53 W 8 7.00 Overcast BKN008 BKN044 OVC055 27 25 28.9 27 92% 19 29.72 1006.4
02 20:53 W 7 8.00 Overcast SCT008 OVC060 28 25 88% 22 29.7 1005.8
02 19:53 W 3 7.00 Overcast BKN007 OVC055 28 26.1 92% 29.68 1005.0
02 18:53 Calm 7.00 Overcast SCT065 OVC080 28 26.1 92% 29.66 1004.5
02 17:53 E 3 5.00 Fog/Mist BKN006 OVC044 28 25 88% 29.64 1003.9
02 16:53 E 5 4.00 Fog/Mist BKN006 OVC042 27 25 92% 22 29.63 1003.3
02 15:53 E 3 7.00 Overcast OVC006 27 25 27 23 92% 29.61 1002.7
02 14:53 E 7 7.00 Overcast OVC006 26.1 24.1 92% 19 29.59 1002.0
02 13:53 E 10 7.00 Overcast OVC006 26.1 24.1 92% 17 29.57 1001.4
02 12:53 E 13 7.00 Overcast OVC006 25 23 92% 14 29.55 1000.8
02 11:53 E 16 6.00 Fog/Mist OVC005 25 23 92% 13 29.53 1000.1
02 10:53 E 17 5.00 Blowing Snow Fog/Mist OVC005 23 21.9 96% 10 29.51 999.6
02 09:53 E 18 3.00 Blowing Snow Fog/Mist OVC005 23 21 23 21 92% 10 29.5 999.3
02 08:53 E 17 2.00 Fog/Mist OVC005 23 21 92% 10 29.5 999.0
02 07:53 E 20 3.00 Fog/Mist OVC004 21.9 19.9 92% 8 29.48 998.6
02 06:53 E 18 3.00 Fog/Mist OVC005 21.9 19.9 92% 8 29.49 998.7
02 05:53 E 17 3.00 Fog/Mist OVC004 21 19.9 96% 8 29.49 998.8
02 04:53 E 21 3.00 Fog/Mist and Breezy OVC005 21 19.9 96% 6 29.49 998.7
02 03:53 E 21 4.00 Fog/Mist and Breezy OVC005 21 19.9 23 21 96% 6 29.5 999.0
02 02:53 E 23 4.00 Fog/Mist and Breezy OVC005 21.9 19.9 92% 7 29.5 999.3
02 01:53 E 20 4.00 Fog/Mist OVC008 21.9 19.9 92% 8 29.52 999.7
02 00:53 E 25 5.00 Blowing Snow Fog/Mist and Breezy OVC008 21.9 21 96% 6 29.53 1000.1
01 23:53 E 24 1.50 Blowing Snow Fog/Mist and Breezy OVC008 21.9 19.9 92% 6 29.54 1000.5
01 22:53 E 23 4.00 Fog/Mist and Breezy OVC007 21.9 19.9 92% 7 29.56 1001.2
01 21:53 E 22 5.00 Fog/Mist and Breezy OVC008 21 19 21 19.9 92% 6 29.58 1001.8
01 20:53 E 23 4.00 Blowing Snow Fog/Mist and Breezy OVC009 19.9 18 92% 4 29.59 1002.3
01 19:53 E 23 G 31 3.00 Blowing Snow Fog/Mist and Breezy OVC009 19.9 18 92% 4 29.62 1003.2
01 18:53 E 23 2.00 Blowing Snow Fog/Mist and Breezy BKN009 21 18 88% 6 29.63 1003.4
01 17:53 E 24 2.00 Blowing Snow Fog/Mist and Breezy SCT009 21 18 88% 5 29.64 1003.9
01 16:53 E 28 1.50 Blowing Snow Fog/Mist and Windy SCT009 21 19 92% 4 29.66 1004.7
01 15:53 E 30 1.25 Blowing Snow Fog/Mist and Windy SCT009 21 19 21.9 17.1 92% 4 29.69 1005.6
01 14:53 E 26 1.50 Blowing Snow Fog/Mist and Windy SCT009 21.9 19.9 92% 6 29.71 1006.3
01 13:53 E 25 G 37 1.50 Fog/Mist and Breezy SCT009 21.9 19.9 92% 6 29.72 1006.7
01 12:53 E 28 1.50 Blowing Snow Fog/Mist and Windy SCT007 21 19 92% 4 29.74 1007.2
01 11:53 E 26 2.00 Blowing Snow Fog/Mist and Windy FEW004 18 16 92% 1 29.75 1007.7
01 10:53 E 25 2.00 Blowing Snow Fog/Mist and Breezy BKN004 18 15.1 88% 1 29.77 1008.2
01 09:53 E 26 2.00 Blowing Snow Fog/Mist and Windy BKN005 17.1 15.1 21 17.1 92% -1 29.79 1008.8
01 08:53 E 25 1.75 Blowing Snow Fog/Mist and Breezy OVC007 18 16 92% 1 29.8 1009.4
01 07:53 E 24 2.00 Blowing Snow Fog/Mist and Breezy OVC007 19 17.1 92% 3 29.82 1010.0
01 06:53 E 20 3.00 Blowing Snow Fog/Mist OVC006 19.9 18 92% 5 29.83 1010.4
01 05:53 E 22 2.00 Fog/Mist and Breezy OVC006 19.9 19 96% 5 29.86 1011.3
01 04:53 E 24 1.75 Fog/Mist and Breezy OVC006 21 19 92% 5 29.87 1011.6
01 03:53 E 21 10.00 Overcast and Breezy OVC006 21 19 23 21 92% 6 29.89 1012.2
01 02:53 E 20 6.00 Fog/Mist OVC006 21.9 19.9 92% 8 29.9 1012.7
01 01:53 E 16 2.50 Fog/Mist OVC005 21.9 19.9 92% 9 29.91 1013.2
01 00:53 E 17 7.00 Overcast OVC004 21.9 21 96% 9 29.92 1013.4
30 23:53 E 14 4.00 Fog/Mist OVC004 21.9 21 96% 10 29.93 1013.6
30 22:53 E 15 4.00 Fog/Mist OVC003 23 21.9 96% 11 29.94 1013.9
30 21:53 E 13 4.00 Fog/Mist OVC004 23 21.9 24.1 23 96% 12 29.94 1014.1
Date Time (akdt) Wind (mph) Vis. (mi.) Weather Sky Cond. Air Dwpt Max. Min. Relative Humidity Wind Chill (°F) Heat Index (°F) altimeter (in) sea level (mb) 1 hr 3 hr 6 hr
6 hour
Temperature (ºF) Pressure Precipitation (in)